Terminal Aerodrome Forecast
Issued by NWS Austin/San Antonio, TX

Home | Current Version | Previous Version | Text Only | Print | Product List | Glossary On
Versions: 1 2 3 4 5 6 7 8 9 10 11 12 13 14 15 16 17 18 19 20 21
993
FTUS44 KEWX 192107 AAA
TAFDRT
TAF AMD
KDRT 192107Z 1921/2018 13011KT P6SM SKC
     FM200700 10004KT 5SM BR BKN006
     FM201000 10004KT 2SM BR OVC004
     FM201700 14007KT P6SM SKC=

USA.gov is the U.S. government's official web portal to all federal, state and local government web resources and services.